createdAt,value
2022-08-03T00:01:17.379Z,20.2
2022-08-03T00:03:19.285Z,20.2
2022-08-03T00:09:28.013Z,20.1
2022-08-03T00:11:29.794Z,20.2
2022-08-03T00:12:32.449Z,20.2
2022-08-03T00:16:36.012Z,20.3
2022-08-03T00:18:37.790Z,20.2
2022-08-03T00:20:43.072Z,20.1
2022-08-03T00:26:48.420Z,20
2022-08-03T00:28:50.192Z,20
2022-08-03T00:34:59.254Z,19.9
2022-08-03T00:39:07.878Z,19.8
2022-08-03T00:47:09.783Z,19.6
2022-08-03T00:49:15.104Z,19.4
2022-08-03T00:53:18.643Z,19.4
2022-08-03T00:55:20.392Z,19.3
2022-08-03T00:57:22.214Z,19.3
2022-08-03T00:59:23.990Z,19.3
2022-08-03T01:01:25.863Z,19.2
2022-08-03T01:03:31.052Z,19.2
2022-08-03T01:08:37.283Z,19
2022-08-03T01:10:39.056Z,18.9
2022-08-03T01:12:40.865Z,18.8
2022-08-03T01:14:42.648Z,18.8
2022-08-03T01:16:47.923Z,18.8
2022-08-03T01:18:49.738Z,18.8
2022-08-03T01:20:51.514Z,18.8
2022-08-03T01:35:09.158Z,18.6
2022-08-03T01:37:10.877Z,18.5
2022-08-03T01:45:21.535Z,18.3
2022-08-03T01:47:23.322Z,18.3
2022-08-03T01:52:02.973Z,18.2
2022-08-03T01:53:28.677Z,18.2
2022-08-03T01:55:30.453Z,18.2
2022-08-03T01:57:32.260Z,18.1
2022-08-03T01:59:37.546Z,18.2
2022-08-03T02:02:31.937Z,18.2
2022-08-03T02:04:00.747Z,18.2
2022-08-03T02:07:01.987Z,18.2
2022-08-03T02:08:47.332Z,18.1
2022-08-03T02:10:49.122Z,18.1
2022-08-03T02:12:54.397Z,18.1
2022-08-03T02:14:56.208Z,18.1
2022-08-03T02:16:58.005Z,18
2022-08-03T02:18:59.800Z,18
2022-08-03T02:21:01.580Z,18
2022-08-03T02:23:03.382Z,17.9
2022-08-03T02:25:05.179Z,17.9
2022-08-03T02:27:10.449Z,17.9
2022-08-03T02:29:12.242Z,17.9
2022-08-03T02:31:14.015Z,17.9
2022-08-03T02:33:15.813Z,17.8
2022-08-03T02:37:19.400Z,17.8
2022-08-03T02:41:26.458Z,17.9
2022-08-03T02:43:28.254Z,17.9
2022-08-03T02:45:30.044Z,17.9
2022-08-03T02:47:53.914Z,18.1
2022-08-03T02:49:50.054Z,18.1
2022-08-03T02:55:43.296Z,18
2022-08-03T02:57:44.263Z,18.1
2022-08-03T03:02:03.498Z,18.1
2022-08-03T03:04:05.279Z,18.1
2022-08-03T03:14:17.749Z,18.2
2022-08-03T03:16:19.580Z,18.2
2022-08-03T03:18:22.771Z,18
2022-08-03T03:20:29.632Z,18.1
2022-08-03T03:22:28.465Z,18
2022-08-03T03:24:30.215Z,18
2022-08-03T03:28:33.775Z,17.9
2022-08-03T03:30:35.592Z,17.9
2022-08-03T03:32:37.373Z,17.9
2022-08-03T03:34:39.160Z,17.8
2022-08-03T03:38:46.220Z,17.9
2022-08-03T03:40:47.995Z,17.9
2022-08-03T03:42:49.801Z,17.9
2022-08-03T03:44:51.572Z,17.9
2022-08-03T03:51:00.482Z,17.9
2022-08-03T03:53:02.275Z,17.9
2022-08-03T03:55:04.108Z,18
2022-08-03T03:56:06.750Z,18.1
2022-08-03T03:58:08.555Z,18.1
2022-08-03T04:00:10.353Z,18
2022-08-03T04:02:12.169Z,18
2022-08-03T04:04:17.483Z,18
2022-08-03T04:06:19.266Z,18.1
2022-08-03T04:08:21.054Z,18.1
2022-08-03T04:10:22.841Z,18.1
2022-08-03T04:12:24.644Z,18.1
2022-08-03T04:14:28.783Z,18.2
2022-08-03T04:16:28.230Z,18.3
2022-08-03T04:18:33.531Z,18.3
2022-08-03T04:20:35.324Z,18.4
2022-08-03T04:22:37.118Z,18.4
2022-08-03T04:24:38.957Z,18.5
2022-08-03T04:26:40.728Z,18.5
2022-08-03T04:28:42.581Z,18.5
2022-08-03T04:30:44.308Z,18.6
2022-08-03T04:32:49.591Z,18.6
2022-08-03T04:36:53.182Z,18.7
2022-08-03T04:38:54.952Z,18.7
2022-08-03T04:51:09.946Z,19.2
2022-08-03T04:52:11.870Z,19.3
2022-08-03T04:56:15.425Z,19.3
2022-08-03T04:58:17.205Z,19.5
2022-08-03T05:00:22.515Z,19.5
2022-08-03T05:02:24.288Z,19.5
2022-08-03T05:04:26.093Z,19.6
2022-08-03T05:06:27.855Z,19.7
2022-08-03T05:12:33.300Z,20.1
2022-08-03T05:16:40.525Z,20.2
2022-08-03T05:18:42.179Z,20.2
2022-08-03T05:20:43.921Z,20.1
2022-08-03T05:26:49.241Z,20.1
2022-08-03T05:28:54.516Z,20.3
2022-08-03T05:30:56.316Z,20.3
2022-08-03T05:35:00.026Z,20.4
2022-08-03T05:37:04.265Z,21
2022-08-03T05:41:22.169Z,22.6
2022-08-03T05:43:10.513Z,22
2022-08-03T05:48:17.915Z,21.3
2022-08-03T05:50:18.515Z,21.2
2022-08-03T06:00:30.937Z,23.2
2022-08-03T06:02:32.731Z,22.6
2022-08-03T06:04:34.475Z,22.8
2022-08-03T06:06:36.229Z,22
2022-08-03T06:10:43.253Z,23.4
2022-08-03T06:12:45.022Z,23.3
2022-08-03T06:14:46.799Z,24.3
2022-08-03T06:16:48.554Z,23.9
2022-08-03T06:18:50.334Z,22.9
2022-08-03T06:24:59.927Z,23
2022-08-03T06:27:00.831Z,23
2022-08-03T06:29:03.957Z,22.6
2022-08-03T06:31:04.358Z,23
2022-08-03T06:33:08.238Z,23.5
2022-08-03T06:35:07.861Z,23.6
2022-08-03T06:39:14.841Z,25.1
2022-08-03T06:47:37.667Z,25
2022-08-03T06:52:03.112Z,23.7
2022-08-03T06:53:46.385Z,23.8
2022-08-03T06:55:52.418Z,24.5
2022-08-03T07:01:53.312Z,25
2022-08-03T07:03:54.977Z,25.7
2022-08-03T07:10:03.647Z,24.6
2022-08-03T07:12:05.343Z,24.4
2022-08-03T07:14:07.063Z,24.6
2022-08-03T07:16:08.777Z,25.4
2022-08-03T07:18:10.479Z,25.1
2022-08-03T07:20:15.721Z,24.4
2022-08-03T07:26:20.831Z,26.3
2022-08-03T07:30:25.827Z,26.1
2022-08-03T07:34:34.311Z,25.7
2022-08-03T07:39:40.312Z,26
2022-08-03T07:41:41.988Z,25.6
2022-08-03T07:43:43.696Z,25.7
2022-08-03T07:45:45.407Z,25.2
2022-08-03T07:47:53.638Z,25.2
2022-08-03T07:49:52.261Z,25.3
2022-08-03T07:51:53.955Z,26
2022-08-03T07:53:55.640Z,26.1
2022-08-03T07:55:57.334Z,25.7
2022-08-03T07:57:58.976Z,25.9
2022-08-03T08:02:05.863Z,26
2022-08-03T08:04:07.523Z,26.4
2022-08-03T08:08:10.853Z,26.9
2022-08-03T08:12:15.499Z,26.9
2022-08-03T08:14:15.812Z,26.3
2022-08-03T08:16:20.996Z,27.1
2022-08-03T08:20:28.549Z,25.7
2022-08-03T08:22:30.369Z,25.8
2022-08-03T08:24:27.531Z,26.3
2022-08-03T08:26:29.228Z,26.4
2022-08-03T08:28:33.552Z,26.3
2022-08-03T08:30:35.969Z,25.9
2022-08-03T08:34:39.200Z,26.4
2022-08-03T08:35:41.838Z,26.3
2022-08-03T08:37:43.419Z,26.4
2022-08-03T08:41:47.977Z,25.9
2022-08-03T08:43:51.817Z,26.2
2022-08-03T08:45:53.436Z,26.4
2022-08-03T08:52:01.260Z,26.6
2022-08-03T08:53:59.903Z,26.8
2022-08-03T08:56:01.702Z,26.9
2022-08-03T08:58:06.675Z,26.1
2022-08-03T09:00:08.383Z,26.3
2022-08-03T09:06:13.114Z,27.1
2022-08-03T09:08:14.742Z,27.1
2022-08-03T09:16:24.576Z,27.3
2022-08-03T09:18:26.079Z,28
2022-08-03T09:20:27.576Z,28.2
2022-08-03T09:22:29.149Z,27.9
2022-08-03T09:26:35.605Z,28.1
2022-08-03T09:29:01.296Z,28.3
2022-08-03T09:30:38.650Z,28
2022-08-03T09:31:43.190Z,27.4
2022-08-03T09:33:42.678Z,27.2
2022-08-03T09:35:53.662Z,27.5
2022-08-03T09:38:12.100Z,27.7
2022-08-03T09:39:50.543Z,28
2022-08-03T09:43:53.716Z,28.4
2022-08-03T09:45:55.271Z,29
2022-08-03T09:47:56.784Z,29.2
2022-08-03T09:52:31.296Z,30
2022-08-03T10:06:13.306Z,28.6
2022-08-03T10:16:25.463Z,28.5
2022-08-03T10:18:25.427Z,28.2
2022-08-03T10:20:26.869Z,29.2
2022-08-03T10:22:31.746Z,29.4
2022-08-03T10:24:33.189Z,29.2
2022-08-03T10:26:34.625Z,29.4
2022-08-03T10:33:00.917Z,29
2022-08-03T10:35:18.923Z,29.6
2022-08-03T10:37:07.251Z,29.7
2022-08-03T10:39:16.043Z,29.7
2022-08-03T10:41:10.144Z,29.9
2022-08-03T10:45:13.073Z,29.6
2022-08-03T10:47:14.455Z,29.1
2022-08-03T10:49:25.478Z,30
2022-08-03T10:51:20.741Z,29.8
2022-08-03T10:53:22.177Z,29.4
2022-08-03T10:55:23.607Z,30
2022-08-03T10:59:27.818Z,30.2
2022-08-03T11:01:27.892Z,29.6
2022-08-03T11:05:34.227Z,29.4
2022-08-03T11:19:57.950Z,30.5
2022-08-03T11:22:51.483Z,31.3
2022-08-03T11:24:52.878Z,31.2
2022-08-03T11:26:54.270Z,31
2022-08-03T11:28:55.685Z,30.8
2022-08-03T11:35:03.344Z,30.5
2022-08-03T11:41:07.538Z,31.1
2022-08-03T11:43:08.934Z,31.3
2022-08-03T11:45:13.779Z,31.3
2022-08-03T11:49:16.590Z,30.7
2022-08-03T12:09:33.928Z,31.9
2022-08-03T12:15:41.586Z,32.6
2022-08-03T12:18:45.400Z,32.4
2022-08-03T12:20:46.801Z,32.5
2022-08-03T12:22:48.195Z,33.1
2022-08-03T12:26:58.590Z,32.5
2022-08-03T12:28:55.796Z,32.9
2022-08-03T12:35:00.521Z,34
2022-08-03T12:39:02.825Z,33.4
2022-08-03T12:41:07.651Z,32.4
2022-08-03T12:49:13.355Z,32.9
2022-08-03T12:51:14.675Z,33.6
2022-08-03T12:53:16.091Z,33.7
2022-08-03T12:55:20.919Z,33.4
2022-08-03T12:57:22.346Z,34
2022-08-03T12:59:23.735Z,33.6
2022-08-03T13:01:26.070Z,32.4
2022-08-03T13:03:42.386Z,32.8
2022-08-03T13:05:27.949Z,33.1
2022-08-03T13:07:29.365Z,33
2022-08-03T13:09:34.217Z,32.3
2022-08-03T13:11:57.449Z,31.7
2022-08-03T13:13:37.025Z,32.1
2022-08-03T13:16:40.861Z,31.4
2022-08-03T13:18:42.270Z,31.7
2022-08-03T13:20:43.846Z,31.7
2022-08-03T13:22:50.269Z,31.8
2022-08-03T13:24:51.595Z,32.3
2022-08-03T13:26:53.183Z,32.3
2022-08-03T13:28:54.445Z,32.3
2022-08-03T13:30:55.852Z,32.1
2022-08-03T13:32:57.268Z,31.4
2022-08-03T13:37:09.635Z,32.3
2022-08-03T13:39:05.011Z,31.9
2022-08-03T13:41:06.413Z,31
2022-08-03T13:43:07.821Z,31
2022-08-03T13:47:10.710Z,31.7
2022-08-03T13:49:12.116Z,31.9
2022-08-03T13:51:22.051Z,31.9
2022-08-03T13:53:18.412Z,31.5
2022-08-03T13:55:19.874Z,31.1
2022-08-03T13:59:22.732Z,32
2022-08-03T14:01:54.270Z,31.7
2022-08-03T14:07:31.989Z,31.9
2022-08-03T14:09:33.353Z,32.4
2022-08-03T14:12:07.741Z,32.6
2022-08-03T14:13:58.000Z,32.5
2022-08-03T14:15:59.449Z,33
2022-08-03T14:18:04.325Z,32.5
2022-08-03T14:20:25.965Z,32.4
2022-08-03T14:22:07.252Z,32.2
2022-08-03T14:24:08.637Z,32
2022-08-03T14:26:10.073Z,32.6
2022-08-03T14:28:11.494Z,31.6
2022-08-03T14:30:12.911Z,32
2022-08-03T14:32:17.823Z,31.1
2022-08-03T14:34:19.245Z,31.1
2022-08-03T14:36:20.668Z,31
2022-08-03T14:40:23.561Z,31.7
2022-08-03T14:42:24.990Z,31.7
2022-08-03T14:44:26.432Z,31.7
2022-08-03T14:46:31.334Z,31.5
2022-08-03T14:50:33.637Z,31.3
2022-08-03T14:50:40.989Z,31.7
2022-08-03T14:52:35.644Z,31.5
2022-08-03T14:54:37.112Z,31.1
2022-08-03T14:56:38.639Z,31.6
2022-08-03T14:58:39.992Z,32.1
2022-08-03T15:00:44.952Z,32.6
2022-08-03T15:02:46.402Z,33
2022-08-03T15:05:50.339Z,32.6
2022-08-03T15:07:51.715Z,32.3
2022-08-03T15:09:53.138Z,32.5
2022-08-03T15:11:54.571Z,32.4
2022-08-03T15:13:59.475Z,32
2022-08-03T15:20:26.562Z,32.4
2022-08-03T15:22:05.382Z,32.7
2022-08-03T15:24:06.709Z,32.6
2022-08-03T15:26:30.898Z,32.2
2022-08-03T15:28:12.986Z,32.2
2022-08-03T15:30:14.417Z,32.5
2022-08-03T15:34:17.285Z,31.6
2022-08-03T15:36:18.701Z,31.8
2022-08-03T15:40:21.544Z,32.3
2022-08-03T15:50:32.129Z,33.1
2022-08-03T15:52:33.542Z,32.5
2022-08-03T15:54:34.962Z,32.7
2022-08-03T15:56:39.867Z,31.5
2022-08-03T16:01:45.190Z,32.8
2022-08-03T16:03:46.599Z,32.7
2022-08-03T16:11:55.766Z,34
2022-08-03T16:14:13.796Z,34.5
2022-08-03T16:15:58.651Z,34.1
2022-08-03T16:18:00.125Z,34
2022-08-03T16:22:03.193Z,33
2022-08-03T16:30:12.199Z,35.1
2022-08-03T16:34:15.113Z,35.6
2022-08-03T16:36:16.561Z,35.6
2022-08-03T16:38:21.495Z,35.3
2022-08-03T16:42:24.355Z,35.5
2022-08-03T16:44:25.941Z,35.7
2022-08-03T16:46:27.377Z,34.9
2022-08-03T16:50:30.197Z,33.3
2022-08-03T16:52:35.056Z,34.4
2022-08-03T16:54:36.503Z,34.4
2022-08-03T16:57:59.441Z,34.3
2022-08-03T16:59:41.854Z,34.7
2022-08-03T17:01:43.359Z,35.7
2022-08-03T17:04:01.475Z,34.5
2022-08-03T17:07:53.911Z,34.6
2022-08-03T17:09:52.640Z,33.4
2022-08-03T17:11:54.076Z,33.7
2022-08-03T17:13:55.527Z,34.1
2022-08-03T17:17:58.450Z,34.1
2022-08-03T17:20:07.884Z,33.7
2022-08-03T17:22:04.966Z,33.2
2022-08-03T17:24:12.259Z,32.4
2022-08-03T17:26:16.035Z,31.6
2022-08-03T17:28:50.492Z,30.8
2022-08-03T17:30:10.702Z,30.7
2022-08-03T17:32:17.613Z,30.7
2022-08-03T17:36:18.619Z,30.2
2022-08-03T17:38:22.799Z,30.1
2022-08-03T17:40:21.566Z,29.8
2022-08-03T17:42:31.123Z,29.8
2022-08-03T17:46:26.037Z,29.5
2022-08-03T17:50:32.682Z,29.4
2022-08-03T17:52:34.316Z,29.4
2022-08-03T17:55:57.870Z,29.3
2022-08-03T17:56:59.444Z,29.3
2022-08-03T17:59:00.944Z,29.3
2022-08-03T18:02:00.352Z,29.3
2022-08-03T18:03:07.761Z,29.3
2022-08-03T18:05:16.440Z,29.3
2022-08-03T18:07:11.890Z,29.3
2022-08-03T18:11:14.409Z,29.1
2022-08-03T18:13:15.817Z,29
2022-08-03T18:15:22.142Z,29
2022-08-03T18:20:01.100Z,29
2022-08-03T18:21:25.729Z,28.9
2022-08-03T18:25:45.669Z,28.9
2022-08-03T18:27:45.895Z,28.7
2022-08-03T18:29:35.853Z,28.6
2022-08-03T18:32:03.529Z,28.6
2022-08-03T18:34:17.506Z,28.5
2022-08-03T18:37:52.211Z,28.5
2022-08-03T18:41:46.586Z,28.3
2022-08-03T18:47:54.295Z,28
2022-08-03T18:48:56.916Z,28
2022-08-03T18:53:00.483Z,27.8
2022-08-03T18:57:07.113Z,27.7
2022-08-03T19:01:58.494Z,27.5
2022-08-03T19:05:13.850Z,27.4
2022-08-03T19:07:15.683Z,27.3
2022-08-03T19:09:17.196Z,27.2
2022-08-03T19:11:27.894Z,27
2022-08-03T19:13:30.865Z,26.9
2022-08-03T19:15:37.012Z,26.8
2022-08-03T19:19:43.481Z,26.5
2022-08-03T19:21:32.437Z,26.4
2022-08-03T19:25:39.369Z,26.3
2022-08-03T19:45:00.901Z,25.6
2022-08-03T19:47:02.596Z,25.5
2022-08-03T19:49:04.341Z,25.4
2022-08-03T19:51:12.224Z,25.2
2022-08-03T19:53:11.692Z,25
2022-08-03T19:55:12.978Z,25
2022-08-03T19:57:15.880Z,25
2022-08-03T20:01:19.236Z,24.9
2022-08-03T20:03:21.921Z,24.7
2022-08-03T20:05:21.501Z,24.7
2022-08-03T20:07:26.749Z,24.6
2022-08-03T20:09:30.527Z,24.6
2022-08-03T20:11:30.152Z,24.5
2022-08-03T20:13:31.857Z,24.4
2022-08-03T20:21:42.258Z,24.4
2022-08-03T20:24:01.687Z,24.4
2022-08-03T20:25:57.596Z,24.4
2022-08-03T20:30:07.586Z,24.3
2022-08-03T20:31:50.823Z,24.1
2022-08-03T20:33:52.582Z,23.9
2022-08-03T20:37:59.515Z,23.7
2022-08-03T20:41:03.845Z,23.7
2022-08-03T20:49:14.352Z,23.5
2022-08-03T20:51:20.183Z,23.4
2022-08-03T20:53:22.027Z,23.4
2022-08-03T20:55:47.229Z,23.3
2022-08-03T20:59:22.982Z,23.2
2022-08-03T21:08:04.402Z,22.9
2022-08-03T21:09:40.042Z,22.9
2022-08-03T21:11:41.611Z,22.9
2022-08-03T21:13:02.300Z,26.1
2022-08-03T21:13:03.794Z,24.3
2022-08-03T21:13:04.889Z,28.8
2022-08-03T21:13:07.896Z,23.2
2022-08-03T21:13:13.426Z,22.9
2022-08-03T21:13:38.686Z,22.9
2022-08-03T21:17:46.169Z,22.5
2022-08-03T21:19:51.691Z,22.5
2022-08-03T21:21:49.221Z,22.4
2022-08-03T21:23:50.962Z,22.3
2022-08-03T21:25:52.718Z,22.3
2022-08-03T21:27:54.486Z,22.3
2022-08-03T21:32:01.640Z,22.2
2022-08-03T21:34:03.320Z,22.1
2022-08-03T21:36:06.605Z,22
2022-08-03T21:38:29.651Z,22
2022-08-03T21:42:32.544Z,22
2022-08-03T21:50:43.113Z,21.8
2022-08-03T21:52:44.875Z,21.8
2022-08-03T21:54:46.631Z,21.8
2022-08-03T21:56:48.435Z,21.9
2022-08-03T21:58:53.693Z,21.8
2022-08-03T22:00:55.443Z,21.8
2022-08-03T22:02:58.121Z,21.7
2022-08-03T22:07:00.740Z,21.5
2022-08-03T22:11:04.634Z,21.4
2022-08-03T22:15:15.026Z,21.4
2022-08-03T22:17:13.122Z,21.3
2022-08-03T22:19:14.886Z,21.3
2022-08-03T22:27:25.468Z,21.1
2022-08-03T22:32:31.649Z,21.3
2022-08-03T22:34:33.435Z,21.3
2022-08-03T22:36:35.212Z,21.2
2022-08-03T22:38:36.979Z,21.1
2022-08-03T22:40:42.238Z,21
2022-08-03T22:44:45.802Z,21
2022-08-03T22:52:52.908Z,21
2022-08-03T22:54:58.200Z,20.9
2022-08-03T22:59:01.764Z,20.9
2022-08-03T23:01:03.525Z,20.8
2022-08-03T23:19:25.379Z,20.6
2022-08-03T23:25:31.842Z,20.4
2022-08-03T23:27:33.653Z,20.3
2022-08-03T23:28:36.246Z,20.2
2022-08-03T23:34:41.586Z,20.2
2022-08-03T23:36:46.853Z,20.2
2022-08-03T23:38:48.623Z,20.2
2022-08-03T23:40:51.351Z,20.2
2022-08-03T23:42:52.197Z,20.2
2022-08-03T23:44:53.974Z,20.1
2022-08-03T23:46:55.731Z,20.1
2022-08-03T23:48:57.527Z,20
2022-08-03T23:51:02.799Z,19.9
2022-08-03T23:53:04.608Z,19.9
2022-08-03T23:55:06.354Z,19.9
2022-08-03T23:57:08.140Z,19.9
